sensor_id;sensor_type;location;lat;lon;timestamp;P1;durP1;ratioP1;P2;durP2;ratioP2
11247;SDS011;5681;53.316;13.950;2024-03-02T00:02:17;119.75;;;81.60;;
11247;SDS011;5681;53.316;13.950;2024-03-02T00:04:44;121.53;;;82.03;;
11247;SDS011;5681;53.316;13.950;2024-03-02T00:07:10;111.47;;;77.55;;
11247;SDS011;5681;53.316;13.950;2024-03-02T00:09:38;121.82;;;82.22;;
11247;SDS011;5681;53.316;13.950;2024-03-02T00:12:05;116.38;;;80.05;;
11247;SDS011;5681;53.316;13.950;2024-03-02T00:14:31;118.57;;;80.50;;
11247;SDS011;5681;53.316;13.950;2024-03-02T00:16:58;118.43;;;81.22;;
11247;SDS011;5681;53.316;13.950;2024-03-02T00:19:26;122.30;;;81.10;;
11247;SDS011;5681;53.316;13.950;2024-03-02T00:21:52;123.43;;;81.07;;
11247;SDS011;5681;53.316;13.950;2024-03-02T00:24:20;120.53;;;80.22;;
11247;SDS011;5681;53.316;13.950;2024-03-02T00:26:47;121.03;;;81.07;;
11247;SDS011;5681;53.316;13.950;2024-03-02T00:29:14;117.20;;;77.95;;
11247;SDS011;5681;53.316;13.950;2024-03-02T00:31:42;120.55;;;81.53;;
11247;SDS011;5681;53.316;13.950;2024-03-02T00:34:08;115.18;;;77.90;;
11247;SDS011;5681;53.316;13.950;2024-03-02T00:36:37;119.75;;;80.57;;
11247;SDS011;5681;53.316;13.950;2024-03-02T00:39:04;119.22;;;78.75;;
11247;SDS011;5681;53.316;13.950;2024-03-02T00:41:33;127.13;;;79.95;;
11247;SDS011;5681;53.316;13.950;2024-03-02T00:44:01;119.97;;;81.38;;
11247;SDS011;5681;53.316;13.950;2024-03-02T00:46:30;117.45;;;79.75;;
11247;SDS011;5681;53.316;13.950;2024-03-02T00:49:00;116.32;;;81.10;;
11247;SDS011;5681;53.316;13.950;2024-03-02T00:51:28;114.43;;;77.88;;
11247;SDS011;5681;53.316;13.950;2024-03-02T00:53:57;119.40;;;79.53;;
11247;SDS011;5681;53.316;13.950;2024-03-02T00:56:24;117.15;;;79.70;;
11247;SDS011;5681;53.316;13.950;2024-03-02T00:58:51;120.40;;;80.97;;
11247;SDS011;5681;53.316;13.950;2024-03-02T01:01:18;121.43;;;83.20;;
11247;SDS011;5681;53.316;13.950;2024-03-02T01:03:44;115.45;;;80.30;;
11247;SDS011;5681;53.316;13.950;2024-03-02T01:06:11;116.53;;;79.65;;
11247;SDS011;5681;53.316;13.950;2024-03-02T01:08:37;115.00;;;77.95;;
11247;SDS011;5681;53.316;13.950;2024-03-02T01:11:05;114.80;;;77.28;;
11247;SDS011;5681;53.316;13.950;2024-03-02T01:13:32;107.00;;;74.88;;
11247;SDS011;5681;53.316;13.950;2024-03-02T01:15:58;106.67;;;75.00;;
11247;SDS011;5681;53.316;13.950;2024-03-02T01:18:24;109.80;;;73.55;;
11247;SDS011;5681;53.316;13.950;2024-03-02T01:20:51;106.55;;;73.85;;
11247;SDS011;5681;53.316;13.950;2024-03-02T01:23:18;107.97;;;74.82;;
11247;SDS011;5681;53.316;13.950;2024-03-02T01:25:44;116.95;;;75.55;;
11247;SDS011;5681;53.316;13.950;2024-03-02T01:28:12;112.35;;;76.78;;
11247;SDS011;5681;53.316;13.950;2024-03-02T01:30:39;104.07;;;72.65;;
11247;SDS011;5681;53.316;13.950;2024-03-02T01:33:05;111.78;;;77.40;;
11247;SDS011;5681;53.316;13.950;2024-03-02T01:35:31;107.53;;;75.53;;
11247;SDS011;5681;53.316;13.950;2024-03-02T01:37:58;107.32;;;73.00;;
11247;SDS011;5681;53.316;13.950;2024-03-02T01:40:24;109.25;;;74.50;;
11247;SDS011;5681;53.316;13.950;2024-03-02T01:42:51;114.20;;;77.10;;
11247;SDS011;5681;53.316;13.950;2024-03-02T01:45:19;111.40;;;75.63;;
11247;SDS011;5681;53.316;13.950;2024-03-02T01:47:46;104.93;;;72.72;;
11247;SDS011;5681;53.316;13.950;2024-03-02T01:50:13;109.28;;;76.18;;
11247;SDS011;5681;53.316;13.950;2024-03-02T01:52:39;113.55;;;74.55;;
11247;SDS011;5681;53.316;13.950;2024-03-02T01:55:06;110.55;;;75.55;;
11247;SDS011;5681;53.316;13.950;2024-03-02T01:57:33;110.93;;;73.60;;
11247;SDS011;5681;53.316;13.950;2024-03-02T02:00:00;97.90;;;70.22;;
11247;SDS011;5681;53.316;13.950;2024-03-02T02:02:27;108.10;;;73.78;;
11247;SDS011;5681;53.316;13.950;2024-03-02T02:04:54;111.90;;;74.97;;
11247;SDS011;5681;53.316;13.950;2024-03-02T02:07:20;108.93;;;76.03;;
11247;SDS011;5681;53.316;13.950;2024-03-02T02:09:46;106.03;;;74.53;;
11247;SDS011;5681;53.316;13.950;2024-03-02T02:12:13;110.18;;;74.50;;
11247;SDS011;5681;53.316;13.950;2024-03-02T02:14:40;105.78;;;73.68;;
11247;SDS011;5681;53.316;13.950;2024-03-02T02:17:13;110.05;;;74.90;;
11247;SDS011;5681;53.316;13.950;2024-03-02T02:19:41;115.63;;;74.47;;
11247;SDS011;5681;53.316;13.950;2024-03-02T02:22:09;116.03;;;77.47;;
11247;SDS011;5681;53.316;13.950;2024-03-02T02:24:35;118.57;;;76.72;;
11247;SDS011;5681;53.316;13.950;2024-03-02T02:27:01;107.23;;;74.07;;
11247;SDS011;5681;53.316;13.950;2024-03-02T02:29:28;116.20;;;76.18;;
11247;SDS011;5681;53.316;13.950;2024-03-02T02:31:54;107.18;;;74.45;;
11247;SDS011;5681;53.316;13.950;2024-03-02T02:34:20;113.97;;;76.97;;
11247;SDS011;5681;53.316;13.950;2024-03-02T02:36:47;105.77;;;73.97;;
11247;SDS011;5681;53.316;13.950;2024-03-02T02:39:15;112.30;;;76.57;;
11247;SDS011;5681;53.316;13.950;2024-03-02T02:41:42;110.03;;;77.25;;
11247;SDS011;5681;53.316;13.950;2024-03-02T02:44:08;109.00;;;76.90;;
11247;SDS011;5681;53.316;13.950;2024-03-02T02:46:36;109.50;;;74.72;;
11247;SDS011;5681;53.316;13.950;2024-03-02T02:49:03;109.97;;;76.03;;
11247;SDS011;5681;53.316;13.950;2024-03-02T02:51:29;116.35;;;77.95;;
11247;SDS011;5681;53.316;13.950;2024-03-02T02:53:55;120.90;;;80.47;;
11247;SDS011;5681;53.316;13.950;2024-03-02T02:56:23;114.63;;;79.00;;
11247;SDS011;5681;53.316;13.950;2024-03-02T02:58:49;120.22;;;78.60;;
11247;SDS011;5681;53.316;13.950;2024-03-02T03:01:16;118.07;;;78.78;;
11247;SDS011;5681;53.316;13.950;2024-03-02T03:03:43;123.40;;;81.72;;
11247;SDS011;5681;53.316;13.950;2024-03-02T03:06:09;121.38;;;81.40;;
11247;SDS011;5681;53.316;13.950;2024-03-02T03:08:36;116.18;;;80.72;;
11247;SDS011;5681;53.316;13.950;2024-03-02T03:11:02;113.00;;;79.03;;
11247;SDS011;5681;53.316;13.950;2024-03-02T03:13:31;122.60;;;81.00;;
11247;SDS011;5681;53.316;13.950;2024-03-02T03:15:57;116.35;;;78.22;;
11247;SDS011;5681;53.316;13.950;2024-03-02T03:18:24;121.65;;;79.00;;
11247;SDS011;5681;53.316;13.950;2024-03-02T03:20:50;116.70;;;79.65;;
11247;SDS011;5681;53.316;13.950;2024-03-02T03:23:16;123.38;;;79.07;;
11247;SDS011;5681;53.316;13.950;2024-03-02T03:25:43;119.05;;;77.45;;
11247;SDS011;5681;53.316;13.950;2024-03-02T03:28:10;116.55;;;79.13;;
11247;SDS011;5681;53.316;13.950;2024-03-02T03:30:38;120.53;;;79.05;;
11247;SDS011;5681;53.316;13.950;2024-03-02T03:33:05;117.90;;;75.00;;
11247;SDS011;5681;53.316;13.950;2024-03-02T03:35:31;115.22;;;76.30;;
11247;SDS011;5681;53.316;13.950;2024-03-02T03:37:58;107.55;;;75.00;;
11247;SDS011;5681;53.316;13.950;2024-03-02T03:40:26;113.68;;;75.90;;
11247;SDS011;5681;53.316;13.950;2024-03-02T03:42:53;114.63;;;75.88;;
11247;SDS011;5681;53.316;13.950;2024-03-02T03:45:21;108.47;;;72.13;;
11247;SDS011;5681;53.316;13.950;2024-03-02T03:47:48;101.30;;;71.50;;
11247;SDS011;5681;53.316;13.950;2024-03-02T03:50:15;102.68;;;68.30;;
11247;SDS011;5681;53.316;13.950;2024-03-02T03:52:41;104.50;;;68.00;;
11247;SDS011;5681;53.316;13.950;2024-03-02T03:55:08;100.05;;;67.70;;
11247;SDS011;5681;53.316;13.950;2024-03-02T03:57:35;102.10;;;68.60;;
11247;SDS011;5681;53.316;13.950;2024-03-02T04:00:01;96.63;;;66.32;;
11247;SDS011;5681;53.316;13.950;2024-03-02T04:02:28;92.07;;;63.33;;
11247;SDS011;5681;53.316;13.950;2024-03-02T04:04:56;96.68;;;64.60;;
11247;SDS011;5681;53.316;13.950;2024-03-02T04:07:22;92.18;;;63.28;;
11247;SDS011;5681;53.316;13.950;2024-03-02T04:09:48;90.60;;;62.22;;
11247;SDS011;5681;53.316;13.950;2024-03-02T04:12:15;89.53;;;60.67;;
11247;SDS011;5681;53.316;13.950;2024-03-02T04:14:41;86.43;;;59.25;;
11247;SDS011;5681;53.316;13.950;2024-03-02T04:17:08;82.05;;;58.47;;
11247;SDS011;5681;53.316;13.950;2024-03-02T04:19:35;79.43;;;57.17;;
11247;SDS011;5681;53.316;13.950;2024-03-02T04:22:03;79.53;;;57.05;;
11247;SDS011;5681;53.316;13.950;2024-03-02T04:24:29;83.90;;;58.75;;
11247;SDS011;5681;53.316;13.950;2024-03-02T04:26:56;80.05;;;56.47;;
11247;SDS011;5681;53.316;13.950;2024-03-02T04:29:22;78.55;;;57.75;;
11247;SDS011;5681;53.316;13.950;2024-03-02T04:31:48;79.20;;;56.03;;
11247;SDS011;5681;53.316;13.950;2024-03-02T04:34:15;79.13;;;55.60;;
11247;SDS011;5681;53.316;13.950;2024-03-02T04:36:41;77.03;;;55.63;;
11247;SDS011;5681;53.316;13.950;2024-03-02T04:39:09;81.45;;;55.40;;
11247;SDS011;5681;53.316;13.950;2024-03-02T04:41:35;77.13;;;53.88;;
11247;SDS011;5681;53.316;13.950;2024-03-02T04:44:02;72.88;;;54.90;;
11247;SDS011;5681;53.316;13.950;2024-03-02T04:46:28;75.73;;;52.67;;
11247;SDS011;5681;53.316;13.950;2024-03-02T04:48:55;73.25;;;53.15;;
11247;SDS011;5681;53.316;13.950;2024-03-02T04:51:22;74.20;;;53.00;;
11247;SDS011;5681;53.316;13.950;2024-03-02T04:53:48;79.57;;;52.92;;
11247;SDS011;5681;53.316;13.950;2024-03-02T04:56:16;79.85;;;53.75;;
11247;SDS011;5681;53.316;13.950;2024-03-02T04:58:59;69.25;;;50.17;;
11247;SDS011;5681;53.316;13.950;2024-03-02T05:01:25;71.05;;;52.47;;
11247;SDS011;5681;53.316;13.950;2024-03-02T05:03:52;74.53;;;50.78;;
11247;SDS011;5681;53.316;13.950;2024-03-02T05:06:18;68.13;;;50.17;;
11247;SDS011;5681;53.316;13.950;2024-03-02T05:08:45;67.95;;;50.92;;
11247;SDS011;5681;53.316;13.950;2024-03-02T05:11:13;75.40;;;51.38;;
11247;SDS011;5681;53.316;13.950;2024-03-02T05:13:54;67.77;;;51.10;;
11247;SDS011;5681;53.316;13.950;2024-03-02T05:16:21;67.05;;;48.80;;
11247;SDS011;5681;53.316;13.950;2024-03-02T05:18:47;62.20;;;49.25;;
11247;SDS011;5681;53.316;13.950;2024-03-02T05:21:13;64.07;;;48.97;;
11247;SDS011;5681;53.316;13.950;2024-03-02T05:23:40;63.78;;;49.70;;
11247;SDS011;5681;53.316;13.950;2024-03-02T05:26:06;68.18;;;49.20;;
11247;SDS011;5681;53.316;13.950;2024-03-02T05:28:33;67.65;;;48.80;;
11247;SDS011;5681;53.316;13.950;2024-03-02T05:31:00;64.07;;;46.92;;
11247;SDS011;5681;53.316;13.950;2024-03-02T05:33:29;66.82;;;48.00;;
11247;SDS011;5681;53.316;13.950;2024-03-02T05:35:56;61.80;;;45.53;;
11247;SDS011;5681;53.316;13.950;2024-03-02T05:38:23;58.85;;;44.38;;
11247;SDS011;5681;53.316;13.950;2024-03-02T05:40:54;60.75;;;43.63;;
11247;SDS011;5681;53.316;13.950;2024-03-02T05:43:20;54.90;;;45.33;;
11247;SDS011;5681;53.316;13.950;2024-03-02T05:45:46;56.28;;;44.80;;
11247;SDS011;5681;53.316;13.950;2024-03-02T05:48:14;59.67;;;45.50;;
11247;SDS011;5681;53.316;13.950;2024-03-02T05:50:41;57.95;;;45.25;;
11247;SDS011;5681;53.316;13.950;2024-03-02T05:53:07;52.75;;;43.78;;
11247;SDS011;5681;53.316;13.950;2024-03-02T05:55:33;57.40;;;43.35;;
11247;SDS011;5681;53.316;13.950;2024-03-02T05:58:00;60.40;;;44.65;;
11247;SDS011;5681;53.316;13.950;2024-03-02T06:00:42;58.22;;;44.60;;
11247;SDS011;5681;53.316;13.950;2024-03-02T06:03:08;56.28;;;45.00;;
11247;SDS011;5681;53.316;13.950;2024-03-02T06:05:37;58.90;;;46.25;;
11247;SDS011;5681;53.316;13.950;2024-03-02T06:08:03;61.30;;;45.22;;
11247;SDS011;5681;53.316;13.950;2024-03-02T06:10:30;59.70;;;44.28;;
11247;SDS011;5681;53.316;13.950;2024-03-02T06:12:56;57.15;;;44.80;;
11247;SDS011;5681;53.316;13.950;2024-03-02T06:15:23;57.63;;;43.75;;
11247;SDS011;5681;53.316;13.950;2024-03-02T06:17:50;60.80;;;45.13;;
11247;SDS011;5681;53.316;13.950;2024-03-02T06:20:16;54.35;;;43.25;;
11247;SDS011;5681;53.316;13.950;2024-03-02T06:22:44;58.83;;;43.53;;
11247;SDS011;5681;53.316;13.950;2024-03-02T06:25:10;59.92;;;42.95;;
11247;SDS011;5681;53.316;13.950;2024-03-02T06:27:37;59.63;;;45.35;;
11247;SDS011;5681;53.316;13.950;2024-03-02T06:30:03;66.97;;;46.05;;
11247;SDS011;5681;53.316;13.950;2024-03-02T06:32:30;59.92;;;45.53;;
11247;SDS011;5681;53.316;13.950;2024-03-02T06:34:57;62.70;;;47.17;;
11247;SDS011;5681;53.316;13.950;2024-03-02T06:37:23;61.55;;;46.88;;
11247;SDS011;5681;53.316;13.950;2024-03-02T06:39:51;67.68;;;48.70;;
11247;SDS011;5681;53.316;13.950;2024-03-02T06:42:17;65.18;;;48.28;;
11247;SDS011;5681;53.316;13.950;2024-03-02T06:44:44;64.75;;;48.67;;
11247;SDS011;5681;53.316;13.950;2024-03-02T06:47:10;64.93;;;50.00;;
11247;SDS011;5681;53.316;13.950;2024-03-02T06:49:36;62.75;;;48.17;;
11247;SDS011;5681;53.316;13.950;2024-03-02T06:52:03;64.35;;;49.42;;
11247;SDS011;5681;53.316;13.950;2024-03-02T06:54:29;62.08;;;49.38;;
11247;SDS011;5681;53.316;13.950;2024-03-02T06:56:57;62.67;;;47.63;;
11247;SDS011;5681;53.316;13.950;2024-03-02T06:59:23;62.75;;;49.10;;
11247;SDS011;5681;53.316;13.950;2024-03-02T07:01:50;60.30;;;48.30;;
11247;SDS011;5681;53.316;13.950;2024-03-02T07:04:16;62.28;;;46.22;;
11247;SDS011;5681;53.316;13.950;2024-03-02T07:06:43;66.15;;;46.05;;
11247;SDS011;5681;53.316;13.950;2024-03-02T07:09:09;62.95;;;46.97;;
11247;SDS011;5681;53.316;13.950;2024-03-02T07:11:36;57.15;;;44.78;;
11247;SDS011;5681;53.316;13.950;2024-03-02T07:14:03;58.20;;;45.17;;
11247;SDS011;5681;53.316;13.950;2024-03-02T07:16:30;57.70;;;45.33;;
11247;SDS011;5681;53.316;13.950;2024-03-02T07:18:58;59.45;;;44.38;;
11247;SDS011;5681;53.316;13.950;2024-03-02T07:21:26;61.03;;;46.00;;
11247;SDS011;5681;53.316;13.950;2024-03-02T07:23:53;67.07;;;44.33;;
11247;SDS011;5681;53.316;13.950;2024-03-02T07:26:19;57.05;;;44.33;;
11247;SDS011;5681;53.316;13.950;2024-03-02T07:28:46;55.13;;;43.10;;
11247;SDS011;5681;53.316;13.950;2024-03-02T07:31:14;56.72;;;44.25;;
11247;SDS011;5681;53.316;13.950;2024-03-02T07:33:41;58.40;;;44.72;;
11247;SDS011;5681;53.316;13.950;2024-03-02T07:36:10;58.58;;;44.10;;
11247;SDS011;5681;53.316;13.950;2024-03-02T07:38:36;57.08;;;44.63;;
11247;SDS011;5681;53.316;13.950;2024-03-02T07:41:05;56.15;;;44.67;;
11247;SDS011;5681;53.316;13.950;2024-03-02T07:43:32;54.50;;;42.40;;
11247;SDS011;5681;53.316;13.950;2024-03-02T07:46:00;57.15;;;44.10;;
11247;SDS011;5681;53.316;13.950;2024-03-02T07:48:29;57.47;;;43.88;;
11247;SDS011;5681;53.316;13.950;2024-03-02T07:50:55;53.45;;;42.00;;
11247;SDS011;5681;53.316;13.950;2024-03-02T07:53:22;53.92;;;42.65;;
11247;SDS011;5681;53.316;13.950;2024-03-02T07:55:48;52.20;;;42.33;;
11247;SDS011;5681;53.316;13.950;2024-03-02T07:58:15;50.30;;;42.03;;
11247;SDS011;5681;53.316;13.950;2024-03-02T08:00:43;55.47;;;43.58;;
11247;SDS011;5681;53.316;13.950;2024-03-02T08:03:09;56.58;;;42.97;;
11247;SDS011;5681;53.316;13.950;2024-03-02T08:05:37;52.42;;;43.15;;
11247;SDS011;5681;53.316;13.950;2024-03-02T08:08:04;54.28;;;41.55;;
11247;SDS011;5681;53.316;13.950;2024-03-02T08:10:31;53.25;;;43.33;;
11247;SDS011;5681;53.316;13.950;2024-03-02T08:12:58;57.05;;;44.05;;
11247;SDS011;5681;53.316;13.950;2024-03-02T08:15:44;52.83;;;43.45;;
11247;SDS011;5681;53.316;13.950;2024-03-02T08:18:10;63.15;;;46.53;;
11247;SDS011;5681;53.316;13.950;2024-03-02T08:20:38;54.58;;;44.65;;
11247;SDS011;5681;53.316;13.950;2024-03-02T08:23:04;52.00;;;42.67;;
11247;SDS011;5681;53.316;13.950;2024-03-02T08:25:31;49.38;;;41.53;;
11247;SDS011;5681;53.316;13.950;2024-03-02T08:27:57;52.05;;;41.58;;
11247;SDS011;5681;53.316;13.950;2024-03-02T08:30:23;59.03;;;46.10;;
11247;SDS011;5681;53.316;13.950;2024-03-02T08:32:50;56.55;;;43.78;;
11247;SDS011;5681;53.316;13.950;2024-03-02T08:35:16;66.25;;;46.25;;
11247;SDS011;5681;53.316;13.950;2024-03-02T08:37:44;58.88;;;44.05;;
11247;SDS011;5681;53.316;13.950;2024-03-02T08:40:10;56.20;;;43.83;;
11247;SDS011;5681;53.316;13.950;2024-03-02T08:42:37;60.88;;;43.22;;
11247;SDS011;5681;53.316;13.950;2024-03-02T08:45:04;66.07;;;47.67;;
11247;SDS011;5681;53.316;13.950;2024-03-02T08:47:31;68.40;;;48.15;;
11247;SDS011;5681;53.316;13.950;2024-03-02T08:49:57;65.18;;;49.17;;
11247;SDS011;5681;53.316;13.950;2024-03-02T08:52:23;77.72;;;49.75;;
11247;SDS011;5681;53.316;13.950;2024-03-02T08:54:51;72.82;;;50.33;;
11247;SDS011;5681;53.316;13.950;2024-03-02T08:57:17;68.43;;;48.83;;
11247;SDS011;5681;53.316;13.950;2024-03-02T08:59:44;67.28;;;48.55;;
11247;SDS011;5681;53.316;13.950;2024-03-02T09:02:10;75.45;;;51.17;;
11247;SDS011;5681;53.316;13.950;2024-03-02T09:04:37;69.22;;;49.72;;
11247;SDS011;5681;53.316;13.950;2024-03-02T09:07:03;71.25;;;50.83;;
11247;SDS011;5681;53.316;13.950;2024-03-02T09:09:30;66.07;;;49.97;;
11247;SDS011;5681;53.316;13.950;2024-03-02T09:11:59;71.07;;;50.92;;
11247;SDS011;5681;53.316;13.950;2024-03-02T09:14:25;66.97;;;49.55;;
11247;SDS011;5681;53.316;13.950;2024-03-02T09:16:51;72.20;;;53.00;;
11247;SDS011;5681;53.316;13.950;2024-03-02T09:19:18;76.72;;;52.38;;
11247;SDS011;5681;53.316;13.950;2024-03-02T09:21:44;79.18;;;53.90;;
11247;SDS011;5681;53.316;13.950;2024-03-02T09:24:10;74.35;;;53.33;;
11247;SDS011;5681;53.316;13.950;2024-03-02T09:26:37;75.13;;;53.80;;
11247;SDS011;5681;53.316;13.950;2024-03-02T09:29:05;80.35;;;56.95;;
11247;SDS011;5681;53.316;13.950;2024-03-02T09:31:31;78.20;;;54.95;;
11247;SDS011;5681;53.316;13.950;2024-03-02T09:33:58;80.50;;;56.88;;
11247;SDS011;5681;53.316;13.950;2024-03-02T09:36:24;81.00;;;54.00;;
11247;SDS011;5681;53.316;13.950;2024-03-02T09:38:50;79.45;;;54.25;;
11247;SDS011;5681;53.316;13.950;2024-03-02T09:41:17;81.65;;;55.15;;
11247;SDS011;5681;53.316;13.950;2024-03-02T09:43:43;76.40;;;54.65;;
11247;SDS011;5681;53.316;13.950;2024-03-02T09:46:11;72.53;;;54.80;;
11247;SDS011;5681;53.316;13.950;2024-03-02T09:48:37;75.03;;;54.95;;
11247;SDS011;5681;53.316;13.950;2024-03-02T09:51:04;81.90;;;56.45;;
11247;SDS011;5681;53.316;13.950;2024-03-02T09:53:31;80.45;;;56.90;;
11247;SDS011;5681;53.316;13.950;2024-03-02T09:55:58;84.72;;;57.35;;
11247;SDS011;5681;53.316;13.950;2024-03-02T09:58:25;80.47;;;57.03;;
11247;SDS011;5681;53.316;13.950;2024-03-02T10:00:52;79.65;;;57.70;;
11247;SDS011;5681;53.316;13.950;2024-03-02T10:03:19;82.72;;;57.75;;
11247;SDS011;5681;53.316;13.950;2024-03-02T10:05:46;81.82;;;57.63;;
11247;SDS011;5681;53.316;13.950;2024-03-02T10:08:14;77.47;;;56.10;;
11247;SDS011;5681;53.316;13.950;2024-03-02T10:10:41;83.68;;;58.42;;
11247;SDS011;5681;53.316;13.950;2024-03-02T10:13:08;75.28;;;55.67;;
11247;SDS011;5681;53.316;13.950;2024-03-02T10:15:36;71.20;;;55.80;;
11247;SDS011;5681;53.316;13.950;2024-03-02T10:20:54;73.60;;;55.03;;
11247;SDS011;5681;53.316;13.950;2024-03-02T10:23:20;79.63;;;56.88;;
11247;SDS011;5681;53.316;13.950;2024-03-02T10:25:47;74.18;;;56.30;;
11247;SDS011;5681;53.316;13.950;2024-03-02T10:28:14;76.70;;;57.83;;
11247;SDS011;5681;53.316;13.950;2024-03-02T10:30:41;72.55;;;54.65;;
11247;SDS011;5681;53.316;13.950;2024-03-02T10:33:07;75.47;;;55.13;;
11247;SDS011;5681;53.316;13.950;2024-03-02T10:35:35;68.50;;;52.40;;
11247;SDS011;5681;53.316;13.950;2024-03-02T10:38:03;71.38;;;52.50;;
11247;SDS011;5681;53.316;13.950;2024-03-02T10:40:30;70.93;;;53.38;;
11247;SDS011;5681;53.316;13.950;2024-03-02T10:42:57;72.05;;;53.22;;
11247;SDS011;5681;53.316;13.950;2024-03-02T10:45:25;70.85;;;50.42;;
11247;SDS011;5681;53.316;13.950;2024-03-02T10:47:51;73.20;;;51.72;;
11247;SDS011;5681;53.316;13.950;2024-03-02T10:50:18;70.45;;;51.58;;
11247;SDS011;5681;53.316;13.950;2024-03-02T10:52:45;68.80;;;51.45;;
11247;SDS011;5681;53.316;13.950;2024-03-02T10:55:12;75.43;;;51.47;;
11247;SDS011;5681;53.316;13.950;2024-03-02T10:57:41;74.05;;;50.65;;
11247;SDS011;5681;53.316;13.950;2024-03-02T11:00:10;74.78;;;50.95;;
11247;SDS011;5681;53.316;13.950;2024-03-02T11:02:40;68.35;;;49.83;;
11247;SDS011;5681;53.316;13.950;2024-03-02T11:05:09;71.82;;;52.05;;
11247;SDS011;5681;53.316;13.950;2024-03-02T11:07:37;64.25;;;48.47;;
11247;SDS011;5681;53.316;13.950;2024-03-02T11:10:06;70.20;;;50.60;;
11247;SDS011;5681;53.316;13.950;2024-03-02T11:12:35;68.95;;;50.80;;
11247;SDS011;5681;53.316;13.950;2024-03-02T11:15:03;72.00;;;49.85;;
11247;SDS011;5681;53.316;13.950;2024-03-02T11:17:31;66.18;;;47.85;;
11247;SDS011;5681;53.316;13.950;2024-03-02T11:19:58;65.57;;;48.63;;
11247;SDS011;5681;53.316;13.950;2024-03-02T11:22:24;64.30;;;47.85;;
11247;SDS011;5681;53.316;13.950;2024-03-02T11:24:51;58.55;;;45.33;;
11247;SDS011;5681;53.316;13.950;2024-03-02T11:33:16;60.35;;;44.10;;
11247;SDS011;5681;53.316;13.950;2024-03-02T11:35:49;57.22;;;41.33;;
11247;SDS011;5681;53.316;13.950;2024-03-02T11:38:15;60.38;;;43.05;;
11247;SDS011;5681;53.316;13.950;2024-03-02T11:40:44;61.00;;;43.35;;
11247;SDS011;5681;53.316;13.950;2024-03-02T11:43:10;55.17;;;43.67;;
11247;SDS011;5681;53.316;13.950;2024-03-02T11:45:37;55.38;;;42.58;;
11247;SDS011;5681;53.316;13.950;2024-03-02T11:48:06;54.78;;;41.70;;
11247;SDS011;5681;53.316;13.950;2024-03-02T11:50:39;55.45;;;40.80;;
11247;SDS011;5681;53.316;13.950;2024-03-02T11:53:07;55.55;;;39.85;;
11247;SDS011;5681;53.316;13.950;2024-03-02T11:55:35;58.80;;;40.90;;
11247;SDS011;5681;53.316;13.950;2024-03-02T11:58:03;50.60;;;39.28;;
11247;SDS011;5681;53.316;13.950;2024-03-02T12:00:29;57.67;;;41.78;;
11247;SDS011;5681;53.316;13.950;2024-03-02T12:02:59;51.20;;;37.92;;
11247;SDS011;5681;53.316;13.950;2024-03-02T12:05:28;52.92;;;37.85;;
11247;SDS011;5681;53.316;13.950;2024-03-02T12:07:55;50.28;;;36.47;;
11247;SDS011;5681;53.316;13.950;2024-03-02T12:10:22;50.35;;;37.78;;
11247;SDS011;5681;53.316;13.950;2024-03-02T12:12:54;44.80;;;35.53;;
11247;SDS011;5681;53.316;13.950;2024-03-02T12:15:22;45.10;;;34.92;;
11247;SDS011;5681;53.316;13.950;2024-03-02T12:17:52;45.90;;;34.33;;
11247;SDS011;5681;53.316;13.950;2024-03-02T12:20:19;44.83;;;34.03;;
11247;SDS011;5681;53.316;13.950;2024-03-02T12:22:47;41.38;;;33.20;;
11247;SDS011;5681;53.316;13.950;2024-03-02T12:25:13;46.22;;;34.20;;
11247;SDS011;5681;53.316;13.950;2024-03-02T12:27:41;44.97;;;33.08;;
11247;SDS011;5681;53.316;13.950;2024-03-02T12:30:08;45.78;;;34.25;;
11247;SDS011;5681;53.316;13.950;2024-03-02T12:32:35;42.83;;;32.97;;
11247;SDS011;5681;53.316;13.950;2024-03-02T12:35:04;40.42;;;31.45;;
11247;SDS011;5681;53.316;13.950;2024-03-02T12:37:31;39.33;;;31.23;;
11247;SDS011;5681;53.316;13.950;2024-03-02T12:39:59;42.42;;;32.13;;
11247;SDS011;5681;53.316;13.950;2024-03-02T12:42:25;41.05;;;32.22;;
11247;SDS011;5681;53.316;13.950;2024-03-02T12:44:52;42.38;;;32.60;;
11247;SDS011;5681;53.316;13.950;2024-03-02T12:47:19;44.38;;;33.28;;
11247;SDS011;5681;53.316;13.950;2024-03-02T12:49:46;42.55;;;31.65;;
11247;SDS011;5681;53.316;13.950;2024-03-02T12:52:12;39.90;;;31.40;;
11247;SDS011;5681;53.316;13.950;2024-03-02T12:54:39;43.83;;;34.10;;
11247;SDS011;5681;53.316;13.950;2024-03-02T12:57:07;43.00;;;30.67;;
11247;SDS011;5681;53.316;13.950;2024-03-02T12:59:33;40.30;;;32.47;;
11247;SDS011;5681;53.316;13.950;2024-03-02T13:01:59;41.67;;;32.47;;
11247;SDS011;5681;53.316;13.950;2024-03-02T13:04:27;44.28;;;31.92;;
11247;SDS011;5681;53.316;13.950;2024-03-02T13:06:54;46.42;;;33.05;;
11247;SDS011;5681;53.316;13.950;2024-03-02T13:09:22;39.20;;;31.02;;
11247;SDS011;5681;53.316;13.950;2024-03-02T13:11:49;39.42;;;30.45;;
11247;SDS011;5681;53.316;13.950;2024-03-02T13:14:17;43.25;;;30.40;;
11247;SDS011;5681;53.316;13.950;2024-03-02T13:16:44;38.90;;;30.08;;
11247;SDS011;5681;53.316;13.950;2024-03-02T13:19:12;38.67;;;29.58;;
11247;SDS011;5681;53.316;13.950;2024-03-02T13:21:38;39.75;;;30.13;;
11247;SDS011;5681;53.316;13.950;2024-03-02T13:24:05;40.35;;;29.95;;
11247;SDS011;5681;53.316;13.950;2024-03-02T13:26:32;44.13;;;29.50;;
11247;SDS011;5681;53.316;13.950;2024-03-02T13:28:58;38.67;;;28.50;;
11247;SDS011;5681;53.316;13.950;2024-03-02T13:31:26;33.20;;;27.40;;
11247;SDS011;5681;53.316;13.950;2024-03-02T13:33:52;33.80;;;26.77;;
11247;SDS011;5681;53.316;13.950;2024-03-02T13:36:19;31.10;;;25.85;;
11247;SDS011;5681;53.316;13.950;2024-03-02T13:38:45;30.80;;;24.52;;
11247;SDS011;5681;53.316;13.950;2024-03-02T13:41:12;27.90;;;23.60;;
11247;SDS011;5681;53.316;13.950;2024-03-02T13:43:38;30.92;;;24.85;;
11247;SDS011;5681;53.316;13.950;2024-03-02T13:46:05;27.70;;;21.98;;
11247;SDS011;5681;53.316;13.950;2024-03-02T13:48:33;29.33;;;23.83;;
11247;SDS011;5681;53.316;13.950;2024-03-02T13:50:59;29.15;;;23.45;;
11247;SDS011;5681;53.316;13.950;2024-03-02T13:53:26;27.70;;;21.70;;
11247;SDS011;5681;53.316;13.950;2024-03-02T13:55:52;29.77;;;21.05;;
11247;SDS011;5681;53.316;13.950;2024-03-02T13:58:20;24.75;;;21.20;;
11247;SDS011;5681;53.316;13.950;2024-03-02T14:00:46;24.50;;;20.30;;
11247;SDS011;5681;53.316;13.950;2024-03-02T14:03:13;26.10;;;20.90;;
11247;SDS011;5681;53.316;13.950;2024-03-02T14:05:42;25.48;;;19.38;;
11247;SDS011;5681;53.316;13.950;2024-03-02T14:08:09;25.77;;;20.13;;
11247;SDS011;5681;53.316;13.950;2024-03-02T14:10:35;24.92;;;18.98;;
11247;SDS011;5681;53.316;13.950;2024-03-02T14:13:02;22.45;;;19.42;;
11247;SDS011;5681;53.316;13.950;2024-03-02T14:15:28;24.05;;;20.23;;
11247;SDS011;5681;53.316;13.950;2024-03-02T14:17:55;22.58;;;19.00;;
11247;SDS011;5681;53.316;13.950;2024-03-02T14:20:21;24.98;;;19.48;;
11247;SDS011;5681;53.316;13.950;2024-03-02T14:22:50;24.33;;;18.25;;
11247;SDS011;5681;53.316;13.950;2024-03-02T14:25:17;24.50;;;19.02;;
11247;SDS011;5681;53.316;13.950;2024-03-02T14:27:44;22.63;;;19.10;;